createdAt,value
2016-02-14T00:00:41.901Z,62.4
2016-02-14T00:01:41.951Z,62.02
2016-02-14T00:02:41.938Z,62.4
2016-02-14T00:03:41.956Z,62.4
2016-02-14T00:04:41.974Z,62.5
2016-02-14T00:05:41.993Z,62.5
2016-02-14T00:06:42.010Z,62.4
2016-02-14T00:07:42.029Z,62.4
2016-02-14T00:08:42.032Z,62.31
2016-02-14T00:09:42.051Z,62.5
2016-02-14T00:10:42.085Z,62.12
2016-02-14T00:11:42.103Z,62.4
2016-02-14T00:12:42.105Z,62.12
2016-02-14T00:13:42.124Z,62.21
2016-02-14T00:14:42.142Z,62.31
2016-02-14T00:15:42.159Z,62.31
2016-02-14T00:16:42.179Z,62.69
2016-02-14T00:17:42.197Z,62.69
2016-02-14T00:18:42.215Z,62.4
2016-02-14T00:19:42.233Z,62.69
2016-02-14T00:20:42.252Z,62.59
2016-02-14T00:21:42.270Z,62.69
2016-02-14T00:22:42.273Z,62.78
2016-02-14T00:23:42.291Z,63.07
2016-02-14T00:24:42.324Z,62.88
2016-02-14T00:25:42.344Z,62.97
2016-02-14T00:26:42.346Z,62.78
2016-02-14T00:27:42.364Z,62.97
2016-02-14T00:28:42.383Z,62.78
2016-02-14T00:29:42.401Z,62.78
2016-02-14T00:30:42.405Z,62.88
2016-02-14T00:31:42.429Z,62.88
2016-02-14T00:32:42.447Z,63.64
2016-02-14T00:33:42.465Z,62.97
2016-02-14T00:34:42.484Z,63.35
2016-02-14T00:35:42.506Z,63.64
2016-02-14T00:36:42.509Z,63.64
2016-02-14T00:37:42.528Z,63.73
2016-02-14T00:38:42.546Z,62.97
2016-02-14T00:39:42.565Z,62.97
2016-02-14T00:40:42.583Z,63.35
2016-02-14T00:41:42.601Z,63.54
2016-02-14T00:42:42.605Z,63.45
2016-02-14T00:43:42.622Z,63.07
2016-02-14T00:44:42.655Z,62.97
2016-02-14T00:45:42.658Z,63.64
2016-02-14T00:46:42.693Z,63.54
2016-02-14T00:47:42.695Z,63.73
2016-02-14T00:48:42.714Z,63.73
2016-02-14T00:49:42.732Z,63.54
2016-02-14T00:50:42.751Z,63.64
2016-02-14T00:51:42.769Z,63.17
2016-02-14T00:52:42.787Z,63.54
2016-02-14T00:53:42.804Z,63.35
2016-02-14T00:54:42.824Z,63.26
2016-02-14T00:55:42.842Z,63.54
2016-02-14T00:56:42.845Z,63.26
2016-02-14T00:57:42.863Z,63.73
2016-02-14T00:58:42.881Z,63.73
2016-02-14T00:59:42.900Z,63.73
2016-02-14T01:00:42.918Z,63.73
2016-02-14T01:01:42.936Z,63.73
2016-02-14T01:02:42.954Z,63.54
2016-02-14T01:03:42.973Z,63.54
2016-02-14T01:04:42.975Z,63.64
2016-02-14T01:05:43.009Z,63.64
2016-02-14T01:06:43.012Z,63.45
2016-02-14T01:07:43.031Z,63.07
2016-02-14T01:08:43.049Z,63.35
2016-02-14T01:09:43.067Z,63.64
2016-02-14T01:10:43.085Z,63.73
2016-02-14T01:11:43.103Z,63.26
2016-02-14T01:12:43.122Z,63.07
2016-02-14T01:13:43.140Z,63.26
2016-02-14T01:14:43.159Z,63.17
2016-02-14T01:15:43.161Z,63.26
2016-02-14T01:16:43.180Z,63.73
2016-02-14T01:17:43.198Z,63.64
2016-02-14T01:18:43.216Z,63.92
2016-02-14T01:19:43.235Z,63.73
2016-02-14T01:20:43.252Z,63.92
2016-02-14T01:21:43.287Z,63.92
2016-02-14T01:22:43.274Z,63.83
2016-02-14T01:23:43.308Z,63.73
2016-02-14T01:24:43.311Z,64.02
2016-02-14T01:25:43.345Z,63.92
2016-02-14T01:26:43.347Z,63.83
2016-02-14T01:27:43.366Z,63.92
2016-02-14T01:28:43.368Z,63.35
2016-02-14T01:29:43.386Z,63.54
2016-02-14T01:30:43.420Z,63.26
2016-02-14T01:31:43.423Z,63.35
2016-02-14T01:32:43.456Z,63.45
2016-02-14T01:33:43.460Z,63.83
2016-02-14T01:34:43.478Z,63.64
2016-02-14T01:35:43.496Z,64.11
2016-02-14T01:36:43.515Z,63.83
2016-02-14T01:37:43.533Z,63.73
2016-02-14T01:38:43.550Z,63.64
2016-02-14T01:39:43.570Z,63.64
2016-02-14T01:40:43.572Z,63.45
2016-02-14T01:41:43.591Z,63.64
2016-02-14T01:42:43.609Z,63.83
2016-02-14T01:43:43.627Z,64.02
2016-02-14T01:44:43.646Z,63.83
2016-02-14T01:45:43.664Z,63.73
2016-02-14T01:46:43.682Z,63.83
2016-02-14T01:47:43.700Z,63.54
2016-02-14T01:48:43.718Z,63.64
2016-02-14T01:49:43.721Z,64.02
2016-02-14T01:50:43.755Z,63.73
2016-02-14T01:51:43.601Z,63.73
2016-02-14T01:52:43.792Z,63.83
2016-02-14T01:53:43.795Z,63.35
2016-02-14T01:54:43.812Z,63.64
2016-02-14T01:55:43.831Z,63.83
2016-02-14T01:56:43.849Z,63.64
2016-02-14T01:57:43.868Z,63.73
2016-02-14T01:58:43.871Z,63.83
2016-02-14T01:59:43.890Z,63.83
2016-02-14T02:00:43.907Z,63.92
2016-02-14T02:01:43.926Z,64.02
2016-02-14T02:02:43.944Z,64.11
2016-02-14T02:03:43.962Z,64.4
2016-02-14T02:04:43.981Z,64.3
2016-02-14T02:05:43.998Z,64.3
2016-02-14T02:06:44.001Z,64.3
2016-02-14T02:07:44.020Z,64.3
2016-02-14T02:08:44.039Z,64.3
2016-02-14T02:09:44.072Z,64.3
2016-02-14T02:10:44.075Z,64.49
2016-02-14T02:11:44.093Z,64.11
2016-02-14T02:12:44.112Z,64.21
2016-02-14T02:13:44.130Z,63.83
2016-02-14T02:14:44.147Z,63.92
2016-02-14T02:15:44.166Z,64.02
2016-02-14T02:16:44.169Z,63.92
2016-02-14T02:17:44.203Z,64.02
2016-02-14T02:18:44.206Z,64.02
2016-02-14T02:19:44.224Z,64.21
2016-02-14T02:20:44.242Z,63.92
2016-02-14T02:21:44.261Z,63.92
2016-02-14T02:22:44.294Z,64.3
2016-02-14T02:23:44.312Z,63.73
2016-02-14T02:24:44.300Z,64.4
2016-02-14T02:25:44.318Z,64.3
2016-02-14T02:26:44.337Z,64.59
2016-02-14T02:27:44.355Z,64.3
2016-02-14T02:28:44.389Z,64.49
2016-02-14T02:29:44.392Z,64.3
2016-02-14T02:30:44.426Z,64.21
2016-02-14T02:31:44.428Z,63.73
2016-02-14T02:32:44.431Z,64.21
2016-02-14T02:33:44.465Z,64.21
2016-02-14T02:34:44.467Z,63.73
2016-02-14T02:35:44.486Z,63.83
2016-02-14T02:36:44.504Z,64.11
2016-02-14T02:37:44.538Z,63.92
2016-02-14T02:38:44.541Z,63.83
2016-02-14T02:39:44.559Z,63.92
2016-02-14T02:40:44.561Z,63.83
2016-02-14T02:41:44.595Z,64.11
2016-02-14T02:42:44.614Z,64.3
2016-02-14T02:43:44.616Z,64.11
2016-02-14T02:44:44.635Z,64.02
2016-02-14T02:45:44.653Z,63.92
2016-02-14T02:46:44.688Z,64.3
2016-02-14T02:47:44.690Z,64.49
2016-02-14T02:48:44.708Z,64.49
2016-02-14T02:49:44.727Z,64.17
2016-02-14T02:50:44.744Z,64.3
2016-02-14T02:51:44.763Z,64.02
2016-02-14T02:52:44.766Z,64.59
2016-02-14T02:53:44.800Z,64.49
2016-02-14T02:54:44.803Z,64.11
2016-02-14T02:55:44.821Z,64.21
2016-02-14T02:56:44.839Z,64.59
2016-02-14T02:57:44.858Z,64.78
2016-02-14T02:58:44.876Z,64.11
2016-02-14T02:59:44.878Z,64.87
2016-02-14T03:00:44.912Z,64.4
2016-02-14T03:01:44.915Z,64.21
2016-02-14T03:02:44.933Z,64.69
2016-02-14T03:03:44.952Z,64.4
2016-02-14T03:04:44.986Z,64.69
2016-02-14T03:05:44.988Z,64.21
2016-02-14T03:06:45.023Z,64.78
2016-02-14T03:07:45.025Z,64.4
2016-02-14T03:08:45.042Z,64.4
2016-02-14T03:09:45.062Z,64.4
2016-02-14T03:10:45.095Z,64.97
2016-02-14T03:11:45.098Z,65.16
2016-02-14T03:12:45.101Z,64.87
2016-02-14T03:13:45.119Z,64.59
2016-02-14T03:14:45.138Z,65.25
2016-02-14T03:15:45.156Z,65.35
2016-02-14T03:16:45.175Z,64.49
2016-02-14T03:17:45.177Z,65.25
2016-02-14T03:18:45.194Z,65.16
2016-02-14T03:19:45.214Z,64.97
2016-02-14T03:20:45.232Z,64.49
2016-02-14T03:21:45.250Z,65.12
2016-02-14T03:22:45.268Z,64.97
2016-02-14T03:23:45.287Z,65.06
2016-02-14T03:24:45.321Z,64.4
2016-02-14T03:25:45.323Z,64.69
2016-02-14T03:26:45.326Z,64.87
2016-02-14T03:27:45.344Z,64.87
2016-02-14T03:28:45.363Z,64.97
2016-02-14T03:29:45.381Z,64.69
2016-02-14T03:30:45.399Z,64.4
2016-02-14T03:31:45.418Z,64.3
2016-02-14T03:32:45.420Z,65.16
2016-02-14T03:33:45.439Z,64.78
2016-02-14T03:34:45.457Z,64.78
2016-02-14T03:35:45.490Z,64.78
2016-02-14T03:36:45.509Z,64.46
2016-02-14T03:37:45.512Z,64.69
2016-02-14T03:38:45.530Z,65.06
2016-02-14T03:39:45.549Z,64.46
2016-02-14T03:40:45.567Z,65.06
2016-02-14T03:41:45.585Z,64.69
2016-02-14T03:42:45.603Z,64.94
2016-02-14T03:43:45.606Z,64.46
2016-02-14T03:44:45.624Z,64.75
2016-02-14T03:45:45.642Z,64.87
2016-02-14T03:46:45.661Z,65.12
2016-02-14T03:47:45.679Z,65.5
2016-02-14T03:48:45.698Z,65.41
2016-02-14T03:49:45.716Z,65.44
2016-02-14T03:50:45.734Z,65.41
2016-02-14T03:51:45.769Z,65.31
2016-02-14T03:52:45.755Z,65.54
2016-02-14T03:53:45.774Z,65.41
2016-02-14T03:54:45.791Z,65.22
2016-02-14T03:55:45.810Z,64.69
2016-02-14T03:56:45.829Z,65.44
2016-02-14T03:57:45.832Z,65.25
2016-02-14T03:58:45.865Z,64.94
2016-02-14T03:59:45.868Z,64.97
2016-02-14T04:00:45.886Z,64.78
2016-02-14T04:01:45.905Z,65.06
2016-02-14T04:02:45.923Z,64.94
2016-02-14T04:03:45.940Z,64.75
2016-02-14T04:04:45.944Z,64.87
2016-02-14T04:05:45.978Z,65.12
2016-02-14T04:06:45.996Z,64.65
2016-02-14T04:07:46.014Z,65.22
2016-02-14T04:08:46.033Z,65.03
2016-02-14T04:09:46.035Z,65.03
2016-02-14T04:10:46.054Z,65.6
2016-02-14T04:11:46.072Z,65.44
2016-02-14T04:12:46.089Z,65.88
2016-02-14T04:13:46.093Z,65.35
2016-02-14T04:14:46.111Z,65.6
2016-02-14T04:15:46.130Z,65.5
2016-02-14T04:16:45.992Z,65.22
2016-02-14T04:17:46.166Z,65.54
2016-02-14T04:18:46.200Z,65.69
2016-02-14T04:19:46.203Z,65.79
2016-02-14T04:20:46.221Z,65.54
2016-02-14T04:21:46.224Z,65.63
2016-02-14T04:22:46.242Z,65.82
2016-02-14T04:23:46.260Z,65.41
2016-02-14T04:24:46.294Z,65.5
2016-02-14T04:25:46.297Z,65.44
2016-02-14T04:26:46.316Z,65.54
2016-02-14T04:27:46.318Z,65.44
2016-02-14T04:28:46.352Z,65.63
2016-02-14T04:29:46.370Z,65.54
2016-02-14T04:30:46.388Z,65.73
2016-02-14T04:31:46.390Z,65.73
2016-02-14T04:32:46.409Z,65.54
2016-02-14T04:33:46.428Z,65.73
2016-02-14T04:34:46.446Z,65.5
2016-02-14T04:35:46.465Z,65.44
2016-02-14T04:36:46.467Z,65.73
2016-02-14T04:37:46.501Z,65.54
2016-02-14T04:38:46.504Z,65.44
2016-02-14T04:39:46.522Z,65.54
2016-02-14T04:40:46.540Z,65.63
2016-02-14T04:41:46.559Z,65.63
2016-02-14T04:42:46.581Z,65.82
2016-02-14T04:43:46.600Z,65.63
2016-02-14T04:44:46.602Z,65.63
2016-02-14T04:45:46.621Z,65.73
2016-02-14T04:46:46.638Z,65.25
2016-02-14T04:47:46.657Z,65.25
2016-02-14T04:48:46.659Z,65.22
2016-02-14T04:49:46.694Z,65.22
2016-02-14T04:50:46.696Z,65.63
2016-02-14T04:51:46.730Z,65.44
2016-02-14T04:52:46.733Z,65.69
2016-02-14T04:53:46.751Z,65.6
2016-02-14T04:54:46.770Z,65.25
2016-02-14T04:55:46.787Z,65.54
2016-02-14T04:56:46.806Z,65.63
2016-02-14T04:57:46.809Z,65.25
2016-02-14T04:58:46.828Z,65.44
2016-02-14T04:59:46.845Z,65.54
2016-02-14T05:00:46.864Z,65.54
2016-02-14T05:01:46.882Z,65.63
2016-02-14T05:02:46.901Z,65.44
2016-02-14T05:03:46.919Z,65.44
2016-02-14T05:04:46.936Z,65.63
2016-02-14T05:05:46.939Z,65.73
2016-02-14T05:06:46.958Z,65.54
2016-02-14T05:07:46.992Z,65.82
2016-02-14T05:08:46.995Z,65.54
2016-02-14T05:09:47.013Z,65.44
2016-02-14T05:10:47.031Z,65.63
2016-02-14T05:11:47.050Z,64.97
2016-02-14T05:12:47.069Z,65.63
2016-02-14T05:13:47.071Z,65.69
2016-02-14T05:14:47.090Z,65.35
2016-02-14T05:15:47.108Z,65.44
2016-02-14T05:16:47.142Z,65.25
2016-02-14T05:17:47.145Z,65.35
2016-02-14T05:18:47.163Z,65.54
2016-02-14T05:19:47.166Z,65.63
2016-02-14T05:20:47.200Z,65.63
2016-02-14T05:21:47.218Z,65.25
2016-02-14T05:22:47.221Z,65.63
2016-02-14T05:23:47.238Z,65.54
2016-02-14T05:24:47.258Z,65.54
2016-02-14T05:25:47.276Z,65.25
2016-02-14T05:26:47.294Z,65.63
2016-02-14T05:27:47.297Z,65.54
2016-02-14T05:28:47.331Z,65.25
2016-02-14T05:29:47.334Z,65.35
2016-02-14T05:30:47.352Z,65.44
2016-02-14T05:31:47.370Z,65.44
2016-02-14T05:32:47.387Z,65.63
2016-02-14T05:33:47.407Z,66.01
2016-02-14T05:34:47.425Z,65.63
2016-02-14T05:35:47.443Z,65.92
2016-02-14T05:36:47.446Z,65.82
2016-02-14T05:37:47.464Z,65.82
2016-02-14T05:38:47.483Z,65.82
2016-02-14T05:39:47.501Z,65.25
2016-02-14T05:40:47.519Z,65.25
2016-02-14T05:41:47.537Z,65.35
2016-02-14T05:42:47.539Z,65.44
2016-02-14T05:43:47.558Z,65.54
2016-02-14T05:44:47.578Z,65.82
2016-02-14T05:45:47.595Z,65.54
2016-02-14T05:46:47.614Z,65.82
2016-02-14T05:47:47.647Z,65.73
2016-02-14T05:48:47.650Z,65.73
2016-02-14T05:49:47.653Z,65.82
2016-02-14T05:50:47.686Z,65.73
2016-02-14T05:51:47.689Z,66.01
2016-02-14T05:52:47.708Z,66.01
2016-02-14T05:53:47.742Z,65.73
2016-02-14T05:54:47.745Z,65.82
2016-02-14T05:55:47.607Z,65.92
2016-02-14T05:56:47.765Z,66.01
2016-02-14T05:57:47.799Z,65.92
2016-02-14T05:58:47.818Z,65.92
2016-02-14T05:59:47.820Z,65.44
2016-02-14T06:00:47.838Z,65.82
2016-02-14T06:01:47.857Z,65.82
2016-02-14T06:02:47.875Z,65.92
2016-02-14T06:03:47.894Z,65.92
2016-02-14T06:04:47.948Z,65.82
2016-02-14T06:05:47.920Z,65.92
2016-02-14T06:06:47.922Z,66.11
2016-02-14T06:07:47.956Z,66.11
2016-02-14T06:08:47.959Z,65.82
2016-02-14T06:09:47.977Z,66.49
2016-02-14T06:10:48.012Z,66.39
2016-02-14T06:11:48.014Z,66.11
2016-02-14T06:12:48.032Z,65.82
2016-02-14T06:13:48.050Z,66.3
2016-02-14T06:14:48.069Z,66.3
2016-02-14T06:15:48.071Z,65.82
2016-02-14T06:16:48.089Z,66.01
2016-02-14T06:17:48.124Z,66.39
2016-02-14T06:18:48.126Z,66.39
2016-02-14T06:19:48.145Z,65.73
2016-02-14T06:20:48.163Z,66.49
2016-02-14T06:21:48.181Z,66.67
2016-02-14T06:22:48.199Z,66.58
2016-02-14T06:23:48.202Z,66.3
2016-02-14T06:24:48.220Z,66.49
2016-02-14T06:25:48.223Z,66.01
2016-02-14T06:26:48.257Z,66.11
2016-02-14T06:27:48.276Z,66.2
2016-02-14T06:28:48.294Z,66.67
2016-02-14T06:29:48.312Z,66.39
2016-02-14T06:30:48.315Z,66.3
2016-02-14T06:31:48.334Z,65.92
2016-02-14T06:32:48.351Z,66.49
2016-02-14T06:33:48.370Z,66.58
2016-02-14T06:34:48.387Z,66.49
2016-02-14T06:35:48.407Z,66.3
2016-02-14T06:36:48.425Z,66.3
2016-02-14T06:37:48.443Z,66.58
2016-02-14T06:38:48.445Z,66.58
2016-02-14T06:39:48.464Z,66.3
2016-02-14T06:40:48.482Z,66.67
2016-02-14T06:41:48.517Z,66.39
2016-02-14T06:42:48.519Z,66.2
2016-02-14T06:43:48.536Z,66.58
2016-02-14T06:44:48.556Z,65.92
2016-02-14T06:45:48.574Z,66.87
2016-02-14T06:46:48.592Z,66.87
2016-02-14T06:47:48.595Z,66.87
2016-02-14T06:48:48.630Z,66.58
2016-02-14T06:49:48.632Z,66.96
2016-02-14T06:50:48.650Z,66.2
2016-02-14T06:51:48.668Z,66.2
2016-02-14T06:52:48.686Z,66.2
2016-02-14T06:53:48.705Z,66.58
2016-02-14T06:54:48.707Z,66.96
2016-02-14T06:55:48.726Z,66.87
2016-02-14T06:56:48.744Z,66.2
2016-02-14T06:57:48.763Z,66.39
2016-02-14T06:58:48.781Z,66.77
2016-02-14T06:59:48.799Z,66.11
2016-02-14T07:00:48.807Z,66.58
2016-02-14T07:01:48.814Z,66.67
2016-02-14T07:02:48.808Z,66.67
2016-02-14T07:03:48.816Z,66.39
2016-02-14T07:04:48.841Z,66.3
2016-02-14T07:05:48.840Z,66.3
2016-02-14T07:06:48.854Z,66.3
2016-02-14T07:07:48.870Z,66.3
2016-02-14T07:08:48.884Z,66.39
2016-02-14T07:09:48.899Z,66.49
2016-02-14T07:10:48.901Z,66.2
2016-02-14T07:11:48.918Z,66.39
2016-02-14T07:12:48.935Z,66.39
2016-02-14T07:13:48.952Z,66.11
2016-02-14T07:14:48.986Z,66.49
2016-02-14T07:15:48.988Z,66.3
2016-02-14T07:16:49.005Z,66.3
2016-02-14T07:17:49.008Z,66.49
2016-02-14T07:18:49.041Z,66.39
2016-02-14T07:19:49.044Z,66.3
2016-02-14T07:20:49.061Z,66.3
2016-02-14T07:21:49.080Z,66.2
2016-02-14T07:22:49.097Z,66.49
2016-02-14T07:23:49.115Z,66.39
2016-02-14T07:24:49.117Z,66.67
2016-02-14T07:25:49.136Z,66.67
2016-02-14T07:26:49.155Z,66.67
2016-02-14T07:27:49.189Z,66.67
2016-02-14T07:28:49.191Z,66.39
2016-02-14T07:29:49.208Z,66.87
2016-02-14T07:30:49.228Z,67.15
2016-02-14T07:31:49.246Z,66.67
2016-02-14T07:32:49.264Z,66.67
2016-02-14T07:33:49.283Z,66.49
2016-02-14T07:34:49.285Z,66.67
2016-02-14T07:35:49.304Z,66.96
2016-02-14T07:36:49.322Z,66.96
2016-02-14T07:37:49.340Z,66.96
2016-02-14T07:38:49.357Z,67.06
2016-02-14T07:39:49.377Z,66.96
2016-02-14T07:40:49.395Z,66.87
2016-02-14T07:41:49.413Z,66.67
2016-02-14T07:42:49.416Z,67.06
2016-02-14T07:43:49.434Z,66.96
2016-02-14T07:44:49.453Z,67.06
2016-02-14T07:45:49.471Z,66.96
2016-02-14T07:46:49.489Z,67.15
2016-02-14T07:47:49.507Z,67.15
2016-02-14T07:48:49.510Z,66.96
2016-02-14T07:49:49.544Z,67.34
2016-02-14T07:50:49.548Z,66.77
2016-02-14T07:51:49.565Z,66.96
2016-02-14T07:52:49.584Z,66.67
2016-02-14T07:53:49.602Z,67.06
2016-02-14T07:54:49.605Z,66.77
2016-02-14T07:55:49.639Z,67.06
2016-02-14T07:56:49.656Z,66.87
2016-02-14T07:57:49.675Z,67.06
2016-02-14T07:58:49.693Z,67.15
2016-02-14T07:59:49.712Z,66.49
2016-02-14T08:00:49.714Z,66.77
2016-02-14T08:01:49.733Z,66.8
2016-02-14T08:02:49.751Z,66.52
2016-02-14T08:03:49.785Z,66.87
2016-02-14T08:04:49.788Z,66.87
2016-02-14T08:05:49.805Z,66.39
2016-02-14T08:06:49.824Z,66.8
2016-02-14T08:07:49.843Z,66.9
2016-02-14T08:08:49.846Z,66.8
2016-02-14T08:09:49.863Z,66.61
2016-02-14T08:10:49.882Z,66.52
2016-02-14T08:11:49.900Z,66.8
2016-02-14T08:12:49.919Z,66.8
2016-02-14T08:13:49.937Z,67
2016-02-14T08:14:49.954Z,67.19
2016-02-14T08:15:49.958Z,67
2016-02-14T08:16:49.992Z,67
2016-02-14T08:17:50.010Z,66.71
2016-02-14T08:18:50.013Z,67.19
2016-02-14T08:19:50.031Z,67.38
2016-02-14T08:20:49.893Z,66.9
2016-02-14T08:21:50.084Z,66.42
2016-02-14T08:22:50.071Z,66.8
2016-02-14T08:23:50.103Z,67.19
2016-02-14T08:24:50.106Z,67.19
2016-02-14T08:25:50.125Z,66.52
2016-02-14T08:26:50.144Z,66.71
2016-02-14T08:27:50.162Z,66.71
2016-02-14T08:28:50.180Z,66.33
2016-02-14T08:29:50.199Z,66.42
2016-02-14T08:30:50.217Z,66.52
2016-02-14T08:31:50.235Z,66.52
2016-02-14T08:32:50.253Z,66.9
2016-02-14T08:33:50.256Z,66.52
2016-02-14T08:34:50.290Z,66.61
2016-02-14T08:35:50.294Z,66.71
2016-02-14T08:36:50.311Z,66.9
2016-02-14T08:37:50.345Z,66.8
2016-02-14T08:38:50.348Z,66.71
2016-02-14T08:39:50.382Z,66.9
2016-02-14T08:40:50.385Z,66.9
2016-02-14T08:41:50.418Z,66.71
2016-02-14T08:42:50.421Z,67
2016-02-14T08:43:50.439Z,67.28
2016-02-14T08:44:50.443Z,66.8
2016-02-14T08:45:50.460Z,66.9
2016-02-14T08:46:50.494Z,66.8
2016-02-14T08:47:50.512Z,66.61
2016-02-14T08:48:50.531Z,66.61
2016-02-14T08:49:50.534Z,66.9
2016-02-14T08:50:50.631Z,67.22
2016-02-14T08:51:50.570Z,66.61
2016-02-14T08:52:50.589Z,66.94
2016-02-14T08:53:50.607Z,66.84
2016-02-14T08:54:50.625Z,66.55
2016-02-14T08:55:50.644Z,66.61
2016-02-14T08:56:50.662Z,66.74
2016-02-14T08:57:50.680Z,66.94
2016-02-14T08:58:50.683Z,66.74
2016-02-14T08:59:50.716Z,66.94
2016-02-14T09:00:50.720Z,66.74
2016-02-14T09:01:50.738Z,66.84
2016-02-14T09:02:50.772Z,66.94
2016-02-14T09:03:50.775Z,66.55
2016-02-14T09:04:50.793Z,66.65
2016-02-14T09:05:50.827Z,67.22
2016-02-14T09:06:50.813Z,67.13
2016-02-14T09:07:50.832Z,66.46
2016-02-14T09:08:50.866Z,66.84
2016-02-14T09:09:50.868Z,66.74
2016-02-14T09:10:50.903Z,66.27
2016-02-14T09:11:50.905Z,66.65
2016-02-14T09:12:50.940Z,66.46
2016-02-14T09:13:50.942Z,66.36
2016-02-14T09:14:50.960Z,66.46
2016-02-14T09:15:50.979Z,66.65
2016-02-14T09:16:50.996Z,66.74
2016-02-14T09:17:51.015Z,67.13
2016-02-14T09:18:51.034Z,67.03
2016-02-14T09:19:51.052Z,66.74
2016-02-14T09:20:51.070Z,67.13
2016-02-14T09:21:51.073Z,66.97
2016-02-14T09:22:51.092Z,67.07
2016-02-14T09:23:51.125Z,66.39
2016-02-14T09:24:51.127Z,66.68
2016-02-14T09:25:51.162Z,66.49
2016-02-14T09:26:51.164Z,66.68
2016-02-14T09:27:51.198Z,66.68
2016-02-14T09:28:51.201Z,66.97
2016-02-14T09:29:51.235Z,67.16
2016-02-14T09:30:51.238Z,67.25
2016-02-14T09:31:51.272Z,67.07
2016-02-14T09:32:51.274Z,66.59
2016-02-14T09:33:51.292Z,66.59
2016-02-14T09:34:51.311Z,66.59
2016-02-14T09:35:51.329Z,66.59
2016-02-14T09:36:51.333Z,66.68
2016-02-14T09:37:51.366Z,67.07
2016-02-14T09:38:51.368Z,66.87
2016-02-14T09:39:51.403Z,66.78
2016-02-14T09:40:51.405Z,66.68
2016-02-14T09:41:51.438Z,66.78
2016-02-14T09:42:51.457Z,66.39
2016-02-14T09:43:51.460Z,66.68
2016-02-14T09:44:51.494Z,66.39
2016-02-14T09:45:51.512Z,66.87
2016-02-14T09:46:51.531Z,66.87
2016-02-14T09:47:51.549Z,66.59
2016-02-14T09:48:51.551Z,66.68
2016-02-14T09:49:51.570Z,66.3
2016-02-14T09:50:51.587Z,66.39
2016-02-14T09:51:51.607Z,66.3
2016-02-14T09:52:51.625Z,66.3
2016-02-14T09:53:51.643Z,66.59
2016-02-14T09:54:51.662Z,66.53
2016-02-14T09:55:51.680Z,66.72
2016-02-14T09:56:51.698Z,66.62
2016-02-14T09:57:51.717Z,66.43
2016-02-14T09:58:51.734Z,66.43
2016-02-14T09:59:54.769Z,66.62
2016-02-14T10:00:51.787Z,66.43
2016-02-14T10:01:51.790Z,66.81
2016-02-14T10:02:51.808Z,66.33
2016-02-14T10:03:51.826Z,66.72
2016-02-14T10:04:51.845Z,66.53
2016-02-14T10:05:51.847Z,66.72
2016-02-14T10:06:51.865Z,66.53
2016-02-14T10:07:51.900Z,66.53
2016-02-14T10:08:51.902Z,66.53
2016-02-14T10:09:51.936Z,66.62
2016-02-14T10:10:51.955Z,66.24
2016-02-14T10:11:51.957Z,66.43
2016-02-14T10:12:51.991Z,66.81
2016-02-14T10:13:52.010Z,66.33
2016-02-14T10:14:52.027Z,67.1
2016-02-14T10:15:52.030Z,66.43
2016-02-14T10:16:52.065Z,67
2016-02-14T10:17:52.068Z,66.53
2016-02-14T10:18:52.101Z,66.43
2016-02-14T10:19:52.103Z,66.24
2016-02-14T10:20:52.123Z,67
2016-02-14T10:21:52.140Z,66.43
2016-02-14T10:22:52.173Z,66.24
2016-02-14T10:23:52.193Z,66.62
2016-02-14T10:24:52.226Z,66.33
2016-02-14T10:25:52.214Z,66.53
2016-02-14T10:26:52.248Z,66.81
2016-02-14T10:27:52.250Z,67
2016-02-14T10:28:52.269Z,66.53
2016-02-14T10:29:52.303Z,66.43
2016-02-14T10:30:52.305Z,66.43
2016-02-14T10:31:52.339Z,66.91
2016-02-14T10:32:52.342Z,66.72
2016-02-14T10:33:52.361Z,67
2016-02-14T10:34:52.378Z,66.56
2016-02-14T10:35:52.412Z,66.43
2016-02-14T10:36:52.431Z,66.75
2016-02-14T10:37:52.452Z,66.75
2016-02-14T10:38:52.455Z,66.56
2016-02-14T10:39:52.489Z,67.32
2016-02-14T10:40:52.491Z,66.46
2016-02-14T10:41:52.510Z,67.03
2016-02-14T10:42:52.544Z,67.13
2016-02-14T10:43:52.546Z,66.85
2016-02-14T10:44:52.564Z,66.46
2016-02-14T10:45:52.599Z,66.56
2016-02-14T10:46:52.601Z,66.66
2016-02-14T10:47:52.620Z,66.66
2016-02-14T10:48:52.638Z,66.56
2016-02-14T10:49:52.656Z,66.75
2016-02-14T10:50:52.674Z,66.85
2016-02-14T10:51:52.707Z,66.46
2016-02-14T10:52:52.726Z,66.56
2016-02-14T10:53:52.729Z,66.94
2016-02-14T10:54:52.763Z,66.75
2016-02-14T10:55:52.766Z,66.85
2016-02-14T10:56:52.800Z,66.66
2016-02-14T10:57:52.803Z,66.46
2016-02-14T10:58:52.837Z,66.56
2016-02-14T10:59:52.839Z,66.75
2016-02-14T11:00:52.889Z,66.75
2016-02-14T11:01:52.876Z,66.85
2016-02-14T11:02:52.910Z,67.22
2016-02-14T11:03:52.912Z,66.66
2016-02-14T11:04:52.947Z,67.03
2016-02-14T11:05:52.950Z,66.4
2016-02-14T11:06:52.983Z,66.27
2016-02-14T11:07:52.985Z,66.59
2016-02-14T11:08:53.020Z,66.88
2016-02-14T11:09:53.038Z,66.94
2016-02-14T11:10:53.056Z,66.88
2016-02-14T11:11:53.075Z,66.5
2016-02-14T11:12:53.093Z,66.69
2016-02-14T11:13:53.111Z,66.69
2016-02-14T11:14:53.130Z,66.78
2016-02-14T11:15:53.147Z,66.31
2016-02-14T11:16:53.166Z,66.31
2016-02-14T11:17:53.185Z,66.4
2016-02-14T11:18:53.203Z,67.07
2016-02-14T11:19:53.237Z,67.07
2016-02-14T11:20:53.240Z,66.59
2016-02-14T11:21:53.274Z,66.21
2016-02-14T11:22:53.276Z,66.5
2016-02-14T11:23:53.294Z,65.73
2016-02-14T11:24:53.328Z,65.45
2016-02-14T11:25:53.347Z,65.83
2016-02-14T11:26:53.365Z,65.26
2016-02-14T11:27:53.383Z,65.67
2016-02-14T11:28:53.246Z,65.2
2016-02-14T11:29:53.420Z,64.72
2016-02-14T11:30:53.453Z,64.72
2016-02-14T11:31:53.457Z,64.53
2016-02-14T11:32:53.490Z,64.34
2016-02-14T11:33:53.493Z,64.72
2016-02-14T11:34:53.512Z,64.72
2016-02-14T11:35:53.530Z,64.81
2016-02-14T11:36:53.548Z,64.62
2016-02-14T11:37:53.566Z,64.15
2016-02-14T11:38:53.600Z,64.43
2016-02-14T11:39:53.603Z,64.43
2016-02-14T11:40:53.637Z,64.09
2016-02-14T11:41:53.655Z,63.67
2016-02-14T11:42:53.674Z,63.39
2016-02-14T11:43:53.692Z,63.67
2016-02-14T11:44:53.710Z,63.6
2016-02-14T11:45:53.728Z,63.6
2016-02-14T11:46:53.747Z,63.99
2016-02-14T11:47:53.765Z,63.76
2016-02-14T11:48:53.800Z,63.67
2016-02-14T11:49:53.818Z,63.32
2016-02-14T11:50:53.836Z,63.04
2016-02-14T11:51:53.838Z,63.42
2016-02-14T11:52:53.871Z,63.13
2016-02-14T11:53:53.891Z,63.13
2016-02-14T11:54:53.909Z,62.94
2016-02-14T11:55:53.927Z,62.56
2016-02-14T11:56:53.946Z,62.65
2016-02-14T11:57:53.979Z,62.75
2016-02-14T11:58:53.982Z,62.65
2016-02-14T11:59:54.015Z,62.75
2016-02-14T12:00:54.034Z,63.04
2016-02-14T12:01:54.037Z,63.13
2016-02-14T12:02:54.070Z,63.04
2016-02-14T12:03:54.089Z,63.13
2016-02-14T12:04:54.108Z,63.04
2016-02-14T12:05:54.125Z,63.13
2016-02-14T12:06:54.144Z,63.13
2016-02-14T12:07:54.162Z,63.13
2016-02-14T12:08:54.181Z,62.84
2016-02-14T12:09:54.200Z,63.04
2016-02-14T12:10:54.249Z,62.97
2016-02-14T12:11:54.252Z,62.27
2016-02-14T12:12:54.255Z,62.65
2016-02-14T12:13:54.288Z,62.84
2016-02-14T12:14:54.306Z,62.78
2016-02-14T12:15:54.341Z,62.75
2016-02-14T12:16:54.343Z,62.65
2016-02-14T12:17:54.361Z,62.65
2016-02-14T12:18:54.379Z,62.75
2016-02-14T12:19:54.414Z,62.65
2016-02-14T12:20:54.432Z,62.75
2016-02-14T12:21:54.449Z,62.65
2016-02-14T12:22:54.469Z,62.84
2016-02-14T12:23:54.502Z,62.65
2016-02-14T12:24:54.521Z,62.65
2016-02-14T12:25:54.539Z,62.65
2016-02-14T12:26:54.543Z,62.65
2016-02-14T12:27:54.576Z,62.97
2016-02-14T12:28:54.578Z,62.37
2016-02-14T12:29:54.613Z,62.56
2016-02-14T12:30:54.631Z,62.49
2016-02-14T12:31:54.649Z,62.68
2016-02-14T12:32:54.667Z,62.4
2016-02-14T12:33:54.701Z,62.49
2016-02-14T12:34:54.704Z,61.83
2016-02-14T12:35:54.737Z,61.63
2016-02-14T12:36:54.756Z,62.02
2016-02-14T12:37:54.775Z,62.21
2016-02-14T12:38:54.793Z,62.02
2016-02-14T12:39:54.827Z,61.83
2016-02-14T12:40:54.830Z,61.83
2016-02-14T12:41:54.864Z,61.83
2016-02-14T12:42:54.866Z,61.83
2016-02-14T12:43:54.900Z,62.02
2016-02-14T12:44:54.919Z,61.35
2016-02-14T12:45:54.937Z,61.83
2016-02-14T12:46:54.955Z,62.02
2016-02-14T12:47:54.989Z,61.44
2016-02-14T12:48:55.007Z,61.35
2016-02-14T12:49:55.010Z,61.44
2016-02-14T12:50:55.044Z,60.58
2016-02-14T12:51:55.062Z,60.87
2016-02-14T12:52:55.081Z,60.68
2016-02-14T12:53:55.099Z,61.16
2016-02-14T12:54:55.118Z,61.16
2016-02-14T12:55:55.151Z,60.87
2016-02-14T12:56:55.169Z,60.42